sensor_id;sensor_type;location;lat;lon;timestamp;temperature;humidity
4904;DHT22;2467;48.142;11.616;2023-04-30T00:00:18;13.00;99.90
4904;DHT22;2467;48.142;11.616;2023-04-30T00:00:50;12.90;99.90
4904;DHT22;2467;48.142;11.616;2023-04-30T00:01:23;12.90;99.90
4904;DHT22;2467;48.142;11.616;2023-04-30T00:01:55;12.90;99.90
4904;DHT22;2467;48.142;11.616;2023-04-30T00:02:27;12.90;99.90
4904;DHT22;2467;48.142;11.616;2023-04-30T00:03:00;12.80;99.90
4904;DHT22;2467;48.142;11.616;2023-04-30T00:03:32;12.80;99.90
4904;DHT22;2467;48.142;11.616;2023-04-30T00:04:04;12.80;99.90
4904;DHT22;2467;48.142;11.616;2023-04-30T00:04:37;12.80;99.90
4904;DHT22;2467;48.142;11.616;2023-04-30T00:05:09;12.80;99.90
4904;DHT22;2467;48.142;11.616;2023-04-30T00:05:41;12.80;99.90
4904;DHT22;2467;48.142;11.616;2023-04-30T00:06:13;12.80;99.90
4904;DHT22;2467;48.142;11.616;2023-04-30T00:06:46;12.80;99.90
4904;DHT22;2467;48.142;11.616;2023-04-30T00:07:18;12.80;99.90
4904;DHT22;2467;48.142;11.616;2023-04-30T00:07:51;12.90;99.90
4904;DHT22;2467;48.142;11.616;2023-04-30T00:08:23;12.80;99.90
4904;DHT22;2467;48.142;11.616;2023-04-30T00:08:54;12.90;99.90
4904;DHT22;2467;48.142;11.616;2023-04-30T00:09:27;12.80;99.90
4904;DHT22;2467;48.142;11.616;2023-04-30T00:09:59;12.80;99.90
4904;DHT22;2467;48.142;11.616;2023-04-30T00:10:31;12.80;99.90
4904;DHT22;2467;48.142;11.616;2023-04-30T00:11:04;12.80;99.90
4904;DHT22;2467;48.142;11.616;2023-04-30T00:11:36;12.90;99.90
4904;DHT22;2467;48.142;11.616;2023-04-30T00:12:09;12.90;99.90
4904;DHT22;2467;48.142;11.616;2023-04-30T00:12:42;12.90;99.90
4904;DHT22;2467;48.142;11.616;2023-04-30T00:13:13;12.90;99.90
4904;DHT22;2467;48.142;11.616;2023-04-30T00:13:45;12.90;99.90
4904;DHT22;2467;48.142;11.616;2023-04-30T00:14:18;13.00;99.90
4904;DHT22;2467;48.142;11.616;2023-04-30T00:14:50;13.00;99.90
4904;DHT22;2467;48.142;11.616;2023-04-30T00:15:22;13.00;99.90
4904;DHT22;2467;48.142;11.616;2023-04-30T00:15:55;13.00;99.90
4904;DHT22;2467;48.142;11.616;2023-04-30T00:16:26;13.00;99.90
4904;DHT22;2467;48.142;11.616;2023-04-30T00:16:58;13.20;99.90
4904;DHT22;2467;48.142;11.616;2023-04-30T00:17:31;13.10;99.90
4904;DHT22;2467;48.142;11.616;2023-04-30T00:18:03;13.10;99.90
4904;DHT22;2467;48.142;11.616;2023-04-30T00:18:37;13.10;99.90
4904;DHT22;2467;48.142;11.616;2023-04-30T00:19:09;13.20;99.90
4904;DHT22;2467;48.142;11.616;2023-04-30T00:19:41;13.20;99.90
4904;DHT22;2467;48.142;11.616;2023-04-30T00:20:14;13.20;99.90
4904;DHT22;2467;48.142;11.616;2023-04-30T00:20:46;13.20;99.90
4904;DHT22;2467;48.142;11.616;2023-04-30T00:21:18;13.10;99.90
4904;DHT22;2467;48.142;11.616;2023-04-30T00:21:51;13.20;99.90
4904;DHT22;2467;48.142;11.616;2023-04-30T00:22:22;13.20;99.90
4904;DHT22;2467;48.142;11.616;2023-04-30T00:22:54;13.20;99.90
4904;DHT22;2467;48.142;11.616;2023-04-30T00:23:27;13.20;99.90
4904;DHT22;2467;48.142;11.616;2023-04-30T00:23:59;13.10;99.90
4904;DHT22;2467;48.142;11.616;2023-04-30T00:24:31;13.10;99.90
4904;DHT22;2467;48.142;11.616;2023-04-30T00:25:04;13.10;99.90
4904;DHT22;2467;48.142;11.616;2023-04-30T00:25:36;13.10;99.90
4904;DHT22;2467;48.142;11.616;2023-04-30T00:26:08;13.10;99.90
4904;DHT22;2467;48.142;11.616;2023-04-30T00:26:40;13.10;99.90
4904;DHT22;2467;48.142;11.616;2023-04-30T00:27:15;13.10;99.90
4904;DHT22;2467;48.142;11.616;2023-04-30T00:27:47;13.10;99.90
4904;DHT22;2467;48.142;11.616;2023-04-30T00:28:20;13.10;99.90
4904;DHT22;2467;48.142;11.616;2023-04-30T00:28:52;13.10;99.90
4904;DHT22;2467;48.142;11.616;2023-04-30T00:29:24;13.20;99.90
4904;DHT22;2467;48.142;11.616;2023-04-30T00:29:56;13.20;99.90
4904;DHT22;2467;48.142;11.616;2023-04-30T00:30:28;13.20;99.90
4904;DHT22;2467;48.142;11.616;2023-04-30T00:31:00;13.30;99.90
4904;DHT22;2467;48.142;11.616;2023-04-30T00:31:33;13.30;99.90
4904;DHT22;2467;48.142;11.616;2023-04-30T00:32:05;13.30;99.90
4904;DHT22;2467;48.142;11.616;2023-04-30T00:32:37;13.30;99.90
4904;DHT22;2467;48.142;11.616;2023-04-30T00:33:10;13.20;99.90
4904;DHT22;2467;48.142;11.616;2023-04-30T00:33:42;13.20;99.90
4904;DHT22;2467;48.142;11.616;2023-04-30T00:34:14;13.20;99.90
4904;DHT22;2467;48.142;11.616;2023-04-30T00:34:46;13.10;99.90
4904;DHT22;2467;48.142;11.616;2023-04-30T00:35:18;13.30;99.90
4904;DHT22;2467;48.142;11.616;2023-04-30T00:35:50;13.20;99.90
4904;DHT22;2467;48.142;11.616;2023-04-30T00:36:23;13.30;99.90
4904;DHT22;2467;48.142;11.616;2023-04-30T00:36:55;13.20;99.90
4904;DHT22;2467;48.142;11.616;2023-04-30T00:37:27;13.20;99.90
4904;DHT22;2467;48.142;11.616;2023-04-30T00:37:59;13.30;99.90
4904;DHT22;2467;48.142;11.616;2023-04-30T00:38:31;13.30;99.90
4904;DHT22;2467;48.142;11.616;2023-04-30T00:39:03;13.30;99.90
4904;DHT22;2467;48.142;11.616;2023-04-30T00:39:36;13.30;99.90
4904;DHT22;2467;48.142;11.616;2023-04-30T00:40:09;13.30;99.90
4904;DHT22;2467;48.142;11.616;2023-04-30T00:40:42;13.30;99.90
4904;DHT22;2467;48.142;11.616;2023-04-30T00:41:15;13.30;99.90
4904;DHT22;2467;48.142;11.616;2023-04-30T00:41:47;13.30;99.90
4904;DHT22;2467;48.142;11.616;2023-04-30T00:42:20;13.50;99.90
4904;DHT22;2467;48.142;11.616;2023-04-30T00:42:53;13.40;99.90
4904;DHT22;2467;48.142;11.616;2023-04-30T00:43:26;13.40;99.90
4904;DHT22;2467;48.142;11.616;2023-04-30T00:43:58;13.40;99.90
4904;DHT22;2467;48.142;11.616;2023-04-30T00:44:32;13.40;99.90
4904;DHT22;2467;48.142;11.616;2023-04-30T00:45:05;13.40;99.90
4904;DHT22;2467;48.142;11.616;2023-04-30T00:45:37;13.30;99.90
4904;DHT22;2467;48.142;11.616;2023-04-30T00:46:10;13.30;99.90
4904;DHT22;2467;48.142;11.616;2023-04-30T00:46:42;13.20;99.90
4904;DHT22;2467;48.142;11.616;2023-04-30T00:47:14;13.20;99.90
4904;DHT22;2467;48.142;11.616;2023-04-30T00:47:47;13.10;99.90
4904;DHT22;2467;48.142;11.616;2023-04-30T00:48:19;13.10;99.90
4904;DHT22;2467;48.142;11.616;2023-04-30T00:48:51;13.10;99.90
4904;DHT22;2467;48.142;11.616;2023-04-30T00:49:24;13.00;99.90
4904;DHT22;2467;48.142;11.616;2023-04-30T00:49:56;13.00;99.90
4904;DHT22;2467;48.142;11.616;2023-04-30T00:50:28;13.00;99.90
4904;DHT22;2467;48.142;11.616;2023-04-30T00:51:02;13.10;99.90
4904;DHT22;2467;48.142;11.616;2023-04-30T00:51:34;13.00;99.90
4904;DHT22;2467;48.142;11.616;2023-04-30T00:52:07;13.10;99.90
4904;DHT22;2467;48.142;11.616;2023-04-30T00:52:40;13.10;99.90
4904;DHT22;2467;48.142;11.616;2023-04-30T00:53:12;13.10;99.90
4904;DHT22;2467;48.142;11.616;2023-04-30T00:53:43;13.10;99.90
4904;DHT22;2467;48.142;11.616;2023-04-30T00:54:17;13.10;99.90
4904;DHT22;2467;48.142;11.616;2023-04-30T00:54:50;13.10;99.90
4904;DHT22;2467;48.142;11.616;2023-04-30T00:55:24;13.10;99.90
4904;DHT22;2467;48.142;11.616;2023-04-30T00:55:58;13.10;99.90
4904;DHT22;2467;48.142;11.616;2023-04-30T00:56:30;13.10;99.90
4904;DHT22;2467;48.142;11.616;2023-04-30T00:57:04;13.10;99.90
4904;DHT22;2467;48.142;11.616;2023-04-30T00:57:40;13.10;99.90
4904;DHT22;2467;48.142;11.616;2023-04-30T00:58:12;13.00;99.90
4904;DHT22;2467;48.142;11.616;2023-04-30T00:58:44;13.00;99.90
4904;DHT22;2467;48.142;11.616;2023-04-30T00:59:17;13.00;99.90
4904;DHT22;2467;48.142;11.616;2023-04-30T00:59:49;13.00;99.90
4904;DHT22;2467;48.142;11.616;2023-04-30T01:00:22;13.00;99.90
4904;DHT22;2467;48.142;11.616;2023-04-30T01:00:55;12.90;99.90
4904;DHT22;2467;48.142;11.616;2023-04-30T01:01:27;12.90;99.90
4904;DHT22;2467;48.142;11.616;2023-04-30T01:02:00;12.90;99.90
4904;DHT22;2467;48.142;11.616;2023-04-30T01:02:34;12.90;99.90
4904;DHT22;2467;48.142;11.616;2023-04-30T01:03:06;12.90;99.90
4904;DHT22;2467;48.142;11.616;2023-04-30T01:03:41;12.90;99.90
4904;DHT22;2467;48.142;11.616;2023-04-30T01:04:15;13.00;99.90
4904;DHT22;2467;48.142;11.616;2023-04-30T01:04:47;13.00;99.90
4904;DHT22;2467;48.142;11.616;2023-04-30T01:05:19;13.00;99.90
4904;DHT22;2467;48.142;11.616;2023-04-30T01:05:53;13.00;99.90
4904;DHT22;2467;48.142;11.616;2023-04-30T01:06:25;13.10;99.90
4904;DHT22;2467;48.142;11.616;2023-04-30T01:06:57;13.10;99.90
4904;DHT22;2467;48.142;11.616;2023-04-30T01:07:33;13.10;99.90
4904;DHT22;2467;48.142;11.616;2023-04-30T01:08:05;13.10;99.90
4904;DHT22;2467;48.142;11.616;2023-04-30T01:08:37;13.10;99.90
4904;DHT22;2467;48.142;11.616;2023-04-30T01:09:10;13.10;99.90
4904;DHT22;2467;48.142;11.616;2023-04-30T01:09:42;13.10;99.90
4904;DHT22;2467;48.142;11.616;2023-04-30T01:10:14;13.10;99.90
4904;DHT22;2467;48.142;11.616;2023-04-30T01:10:52;13.20;99.90
4904;DHT22;2467;48.142;11.616;2023-04-30T01:11:34;13.20;99.90
4904;DHT22;2467;48.142;11.616;2023-04-30T01:12:13;13.20;99.90
4904;DHT22;2467;48.142;11.616;2023-04-30T01:12:55;13.20;99.90
4904;DHT22;2467;48.142;11.616;2023-04-30T01:13:34;13.10;99.90
4904;DHT22;2467;48.142;11.616;2023-04-30T01:14:12;13.10;99.90
4904;DHT22;2467;48.142;11.616;2023-04-30T01:14:53;13.10;99.90
4904;DHT22;2467;48.142;11.616;2023-04-30T01:15:38;13.00;99.90
4904;DHT22;2467;48.142;11.616;2023-04-30T01:16:18;13.00;99.90
4904;DHT22;2467;48.142;11.616;2023-04-30T01:16:58;12.90;99.90
4904;DHT22;2467;48.142;11.616;2023-04-30T01:17:37;12.90;99.90
4904;DHT22;2467;48.142;11.616;2023-04-30T01:18:14;12.90;99.90
4904;DHT22;2467;48.142;11.616;2023-04-30T01:18:51;12.90;99.90
4904;DHT22;2467;48.142;11.616;2023-04-30T01:19:34;12.80;99.90
4904;DHT22;2467;48.142;11.616;2023-04-30T01:20:08;12.90;99.90
4904;DHT22;2467;48.142;11.616;2023-04-30T01:20:48;12.80;99.90
4904;DHT22;2467;48.142;11.616;2023-04-30T01:21:22;12.80;99.90
4904;DHT22;2467;48.142;11.616;2023-04-30T01:21:56;12.90;99.90
4904;DHT22;2467;48.142;11.616;2023-04-30T01:22:35;12.80;99.90
4904;DHT22;2467;48.142;11.616;2023-04-30T01:23:25;12.80;99.90
4904;DHT22;2467;48.142;11.616;2023-04-30T01:25:21;12.70;99.90
4904;DHT22;2467;48.142;11.616;2023-04-30T01:26:10;12.70;99.90
4904;DHT22;2467;48.142;11.616;2023-04-30T01:26:55;12.60;99.90
4904;DHT22;2467;48.142;11.616;2023-04-30T01:28:14;12.60;99.90
4904;DHT22;2467;48.142;11.616;2023-04-30T01:28:49;12.70;99.90
4904;DHT22;2467;48.142;11.616;2023-04-30T01:29:23;12.60;99.90
4904;DHT22;2467;48.142;11.616;2023-04-30T01:29:58;12.70;99.90
4904;DHT22;2467;48.142;11.616;2023-04-30T01:30:34;12.70;99.90
4904;DHT22;2467;48.142;11.616;2023-04-30T01:31:11;12.70;99.90
4904;DHT22;2467;48.142;11.616;2023-04-30T01:31:43;12.80;99.90
4904;DHT22;2467;48.142;11.616;2023-04-30T01:32:16;12.80;99.90
4904;DHT22;2467;48.142;11.616;2023-04-30T01:32:48;12.80;99.90
4904;DHT22;2467;48.142;11.616;2023-04-30T01:33:20;12.80;99.90
4904;DHT22;2467;48.142;11.616;2023-04-30T01:33:53;12.80;99.90
4904;DHT22;2467;48.142;11.616;2023-04-30T01:34:25;12.90;99.90
4904;DHT22;2467;48.142;11.616;2023-04-30T01:34:57;12.90;99.90
4904;DHT22;2467;48.142;11.616;2023-04-30T01:35:57;12.90;99.90
4904;DHT22;2467;48.142;11.616;2023-04-30T01:36:44;12.90;99.90
4904;DHT22;2467;48.142;11.616;2023-04-30T01:37:23;12.90;99.90
4904;DHT22;2467;48.142;11.616;2023-04-30T01:38:10;12.80;99.90
4904;DHT22;2467;48.142;11.616;2023-04-30T01:39:10;12.70;99.90
4904;DHT22;2467;48.142;11.616;2023-04-30T01:40:05;12.70;99.90
4904;DHT22;2467;48.142;11.616;2023-04-30T01:40:43;12.70;99.90
4904;DHT22;2467;48.142;11.616;2023-04-30T01:41:21;12.70;99.90
4904;DHT22;2467;48.142;11.616;2023-04-30T01:42:02;12.70;99.90
4904;DHT22;2467;48.142;11.616;2023-04-30T01:42:40;12.70;99.90
4904;DHT22;2467;48.142;11.616;2023-04-30T01:43:21;12.70;99.90
4904;DHT22;2467;48.142;11.616;2023-04-30T01:44:05;12.70;99.90
4904;DHT22;2467;48.142;11.616;2023-04-30T01:44:53;12.70;99.90
4904;DHT22;2467;48.142;11.616;2023-04-30T01:45:36;12.60;99.90
4904;DHT22;2467;48.142;11.616;2023-04-30T01:46:18;12.60;99.90
4904;DHT22;2467;48.142;11.616;2023-04-30T01:46:59;12.60;99.90
4904;DHT22;2467;48.142;11.616;2023-04-30T01:47:37;12.60;99.90
4904;DHT22;2467;48.142;11.616;2023-04-30T01:48:18;12.60;99.90
4904;DHT22;2467;48.142;11.616;2023-04-30T01:49:01;12.60;99.90
4904;DHT22;2467;48.142;11.616;2023-04-30T01:49:47;12.50;99.90
4904;DHT22;2467;48.142;11.616;2023-04-30T01:50:30;12.50;99.90
4904;DHT22;2467;48.142;11.616;2023-04-30T01:51:10;12.50;99.90
4904;DHT22;2467;48.142;11.616;2023-04-30T01:51:46;12.50;99.90
4904;DHT22;2467;48.142;11.616;2023-04-30T01:52:28;12.50;99.90
4904;DHT22;2467;48.142;11.616;2023-04-30T01:53:06;12.50;99.90
4904;DHT22;2467;48.142;11.616;2023-04-30T01:53:41;12.50;99.90
4904;DHT22;2467;48.142;11.616;2023-04-30T01:54:18;12.60;99.90
4904;DHT22;2467;48.142;11.616;2023-04-30T01:54:59;12.60;99.90
4904;DHT22;2467;48.142;11.616;2023-04-30T01:55:35;12.70;99.90
4904;DHT22;2467;48.142;11.616;2023-04-30T01:56:11;12.70;99.90
4904;DHT22;2467;48.142;11.616;2023-04-30T01:57:00;12.80;99.90
4904;DHT22;2467;48.142;11.616;2023-04-30T01:57:37;12.70;99.90
4904;DHT22;2467;48.142;11.616;2023-04-30T01:58:12;12.70;99.90
4904;DHT22;2467;48.142;11.616;2023-04-30T01:58:48;12.60;99.90
4904;DHT22;2467;48.142;11.616;2023-04-30T01:59:20;12.60;99.90
4904;DHT22;2467;48.142;11.616;2023-04-30T01:59:53;12.60;99.90
4904;DHT22;2467;48.142;11.616;2023-04-30T02:00:28;12.60;99.90
4904;DHT22;2467;48.142;11.616;2023-04-30T02:01:01;12.60;99.90
4904;DHT22;2467;48.142;11.616;2023-04-30T02:01:33;12.70;99.90
4904;DHT22;2467;48.142;11.616;2023-04-30T02:02:06;12.70;99.90
4904;DHT22;2467;48.142;11.616;2023-04-30T02:02:38;12.70;99.90
4904;DHT22;2467;48.142;11.616;2023-04-30T02:03:10;12.80;99.90
4904;DHT22;2467;48.142;11.616;2023-04-30T02:03:43;12.90;99.90
4904;DHT22;2467;48.142;11.616;2023-04-30T02:04:15;12.80;99.90
4904;DHT22;2467;48.142;11.616;2023-04-30T02:04:47;12.80;99.90
4904;DHT22;2467;48.142;11.616;2023-04-30T02:05:19;12.90;99.90
4904;DHT22;2467;48.142;11.616;2023-04-30T02:05:52;12.90;99.90
4904;DHT22;2467;48.142;11.616;2023-04-30T02:06:24;12.90;99.90
4904;DHT22;2467;48.142;11.616;2023-04-30T02:06:59;12.90;99.90
4904;DHT22;2467;48.142;11.616;2023-04-30T02:07:38;12.90;99.90
4904;DHT22;2467;48.142;11.616;2023-04-30T02:08:10;12.90;99.90
4904;DHT22;2467;48.142;11.616;2023-04-30T02:08:43;12.90;99.90
4904;DHT22;2467;48.142;11.616;2023-04-30T02:09:15;12.90;99.90
4904;DHT22;2467;48.142;11.616;2023-04-30T02:09:47;12.90;99.90
4904;DHT22;2467;48.142;11.616;2023-04-30T02:10:22;12.90;99.90
4904;DHT22;2467;48.142;11.616;2023-04-30T02:10:54;12.90;99.90
4904;DHT22;2467;48.142;11.616;2023-04-30T02:11:26;13.00;99.90
4904;DHT22;2467;48.142;11.616;2023-04-30T02:11:59;13.00;99.90
4904;DHT22;2467;48.142;11.616;2023-04-30T02:12:31;13.00;99.90
4904;DHT22;2467;48.142;11.616;2023-04-30T02:13:03;13.00;99.90
4904;DHT22;2467;48.142;11.616;2023-04-30T02:13:36;13.00;99.90
4904;DHT22;2467;48.142;11.616;2023-04-30T02:14:09;12.90;99.90
4904;DHT22;2467;48.142;11.616;2023-04-30T02:14:41;12.90;99.90
4904;DHT22;2467;48.142;11.616;2023-04-30T02:15:13;12.90;99.90
4904;DHT22;2467;48.142;11.616;2023-04-30T02:15:46;12.80;99.90
4904;DHT22;2467;48.142;11.616;2023-04-30T02:16:17;12.80;99.90
4904;DHT22;2467;48.142;11.616;2023-04-30T02:16:49;12.70;99.90
4904;DHT22;2467;48.142;11.616;2023-04-30T02:17:22;12.70;99.90
4904;DHT22;2467;48.142;11.616;2023-04-30T02:17:54;12.60;99.90
4904;DHT22;2467;48.142;11.616;2023-04-30T02:18:27;12.60;99.90
4904;DHT22;2467;48.142;11.616;2023-04-30T02:19:00;12.50;99.90
4904;DHT22;2467;48.142;11.616;2023-04-30T02:19:32;12.50;99.90
4904;DHT22;2467;48.142;11.616;2023-04-30T02:20:06;12.50;99.90
4904;DHT22;2467;48.142;11.616;2023-04-30T02:20:38;12.50;99.90
4904;DHT22;2467;48.142;11.616;2023-04-30T02:21:10;12.50;99.90
4904;DHT22;2467;48.142;11.616;2023-04-30T02:21:43;12.50;99.90
4904;DHT22;2467;48.142;11.616;2023-04-30T02:22:15;12.70;99.90
4904;DHT22;2467;48.142;11.616;2023-04-30T02:22:46;12.60;99.90
4904;DHT22;2467;48.142;11.616;2023-04-30T02:23:19;12.60;99.90
4904;DHT22;2467;48.142;11.616;2023-04-30T02:23:52;12.60;99.90
4904;DHT22;2467;48.142;11.616;2023-04-30T02:24:23;12.60;99.90
4904;DHT22;2467;48.142;11.616;2023-04-30T02:24:55;12.60;99.90
4904;DHT22;2467;48.142;11.616;2023-04-30T02:25:28;12.60;99.90
4904;DHT22;2467;48.142;11.616;2023-04-30T02:26:00;12.50;99.90
4904;DHT22;2467;48.142;11.616;2023-04-30T02:26:33;12.50;99.90
4904;DHT22;2467;48.142;11.616;2023-04-30T02:27:06;12.40;99.90
4904;DHT22;2467;48.142;11.616;2023-04-30T02:27:38;12.40;99.90
4904;DHT22;2467;48.142;11.616;2023-04-30T02:28:10;12.40;99.90
4904;DHT22;2467;48.142;11.616;2023-04-30T02:28:43;12.40;99.90
4904;DHT22;2467;48.142;11.616;2023-04-30T02:29:16;12.40;99.90
4904;DHT22;2467;48.142;11.616;2023-04-30T02:29:48;12.40;99.90
4904;DHT22;2467;48.142;11.616;2023-04-30T02:30:21;12.40;99.90
4904;DHT22;2467;48.142;11.616;2023-04-30T02:30:53;12.40;99.90
4904;DHT22;2467;48.142;11.616;2023-04-30T02:31:25;12.50;99.90
4904;DHT22;2467;48.142;11.616;2023-04-30T02:31:58;12.50;99.90
4904;DHT22;2467;48.142;11.616;2023-04-30T02:32:30;12.50;99.90
4904;DHT22;2467;48.142;11.616;2023-04-30T02:33:02;12.50;99.90
4904;DHT22;2467;48.142;11.616;2023-04-30T02:33:35;12.50;99.90
4904;DHT22;2467;48.142;11.616;2023-04-30T02:34:07;12.40;99.90
4904;DHT22;2467;48.142;11.616;2023-04-30T02:34:39;12.40;99.90
4904;DHT22;2467;48.142;11.616;2023-04-30T02:35:11;12.40;99.90
4904;DHT22;2467;48.142;11.616;2023-04-30T02:35:44;12.40;99.90
4904;DHT22;2467;48.142;11.616;2023-04-30T02:36:16;12.40;99.90
4904;DHT22;2467;48.142;11.616;2023-04-30T02:36:48;12.40;99.90
4904;DHT22;2467;48.142;11.616;2023-04-30T02:37:21;12.50;99.90
4904;DHT22;2467;48.142;11.616;2023-04-30T02:37:53;12.40;99.90
4904;DHT22;2467;48.142;11.616;2023-04-30T02:38:26;12.40;99.90
4904;DHT22;2467;48.142;11.616;2023-04-30T02:38:58;12.40;99.90
4904;DHT22;2467;48.142;11.616;2023-04-30T02:39:30;12.40;99.90
4904;DHT22;2467;48.142;11.616;2023-04-30T02:40:03;12.40;99.90
4904;DHT22;2467;48.142;11.616;2023-04-30T02:40:35;12.40;99.90
4904;DHT22;2467;48.142;11.616;2023-04-30T02:41:07;12.40;99.90
4904;DHT22;2467;48.142;11.616;2023-04-30T02:41:40;12.40;99.90
4904;DHT22;2467;48.142;11.616;2023-04-30T02:42:12;12.50;99.90
4904;DHT22;2467;48.142;11.616;2023-04-30T02:42:43;12.40;99.90
4904;DHT22;2467;48.142;11.616;2023-04-30T02:43:16;12.50;99.90
4904;DHT22;2467;48.142;11.616;2023-04-30T02:43:48;12.50;99.90
4904;DHT22;2467;48.142;11.616;2023-04-30T02:44:21;12.50;99.90
4904;DHT22;2467;48.142;11.616;2023-04-30T02:44:54;12.50;99.90
4904;DHT22;2467;48.142;11.616;2023-04-30T02:45:26;12.50;99.90
4904;DHT22;2467;48.142;11.616;2023-04-30T02:45:59;12.50;99.90
4904;DHT22;2467;48.142;11.616;2023-04-30T02:46:31;12.50;99.90
4904;DHT22;2467;48.142;11.616;2023-04-30T02:47:02;12.50;99.90
4904;DHT22;2467;48.142;11.616;2023-04-30T02:47:35;12.50;99.90
4904;DHT22;2467;48.142;11.616;2023-04-30T02:48:07;12.50;99.90
4904;DHT22;2467;48.142;11.616;2023-04-30T02:48:39;12.40;99.90
4904;DHT22;2467;48.142;11.616;2023-04-30T02:49:12;12.50;99.90
4904;DHT22;2467;48.142;11.616;2023-04-30T02:49:44;12.50;99.90
4904;DHT22;2467;48.142;11.616;2023-04-30T02:50:16;12.50;99.90
4904;DHT22;2467;48.142;11.616;2023-04-30T02:50:49;12.50;99.90
4904;DHT22;2467;48.142;11.616;2023-04-30T02:51:21;12.60;99.90
4904;DHT22;2467;48.142;11.616;2023-04-30T02:51:52;12.50;99.90
4904;DHT22;2467;48.142;11.616;2023-04-30T02:52:25;12.60;99.90
4904;DHT22;2467;48.142;11.616;2023-04-30T02:52:57;12.60;99.90
4904;DHT22;2467;48.142;11.616;2023-04-30T02:53:29;12.60;99.90
4904;DHT22;2467;48.142;11.616;2023-04-30T02:54:02;12.60;99.90
4904;DHT22;2467;48.142;11.616;2023-04-30T02:54:34;12.60;99.90
4904;DHT22;2467;48.142;11.616;2023-04-30T02:55:07;12.60;99.90
4904;DHT22;2467;48.142;11.616;2023-04-30T02:55:39;12.60;99.90
4904;DHT22;2467;48.142;11.616;2023-04-30T02:56:11;12.70;99.90
4904;DHT22;2467;48.142;11.616;2023-04-30T02:56:44;12.60;99.90
4904;DHT22;2467;48.142;11.616;2023-04-30T02:57:17;12.60;99.90
4904;DHT22;2467;48.142;11.616;2023-04-30T02:57:49;12.60;99.90
4904;DHT22;2467;48.142;11.616;2023-04-30T02:58:21;12.50;99.90
4904;DHT22;2467;48.142;11.616;2023-04-30T02:58:54;12.50;99.90
4904;DHT22;2467;48.142;11.616;2023-04-30T02:59:27;12.40;99.90
4904;DHT22;2467;48.142;11.616;2023-04-30T02:59:59;12.40;99.90
4904;DHT22;2467;48.142;11.616;2023-04-30T03:00:32;12.40;99.90
4904;DHT22;2467;48.142;11.616;2023-04-30T03:01:04;12.40;99.90
4904;DHT22;2467;48.142;11.616;2023-04-30T03:01:36;12.40;99.90
4904;DHT22;2467;48.142;11.616;2023-04-30T03:02:09;12.40;99.90
4904;DHT22;2467;48.142;11.616;2023-04-30T03:02:41;12.40;99.90
4904;DHT22;2467;48.142;11.616;2023-04-30T03:03:13;12.50;99.90
4904;DHT22;2467;48.142;11.616;2023-04-30T03:03:46;12.50;99.90
4904;DHT22;2467;48.142;11.616;2023-04-30T03:04:18;12.50;99.90
4904;DHT22;2467;48.142;11.616;2023-04-30T03:04:50;12.50;99.90
4904;DHT22;2467;48.142;11.616;2023-04-30T03:05:23;12.50;99.90
4904;DHT22;2467;48.142;11.616;2023-04-30T03:05:54;12.50;99.90
4904;DHT22;2467;48.142;11.616;2023-04-30T03:06:30;12.50;99.90
4904;DHT22;2467;48.142;11.616;2023-04-30T03:07:02;12.50;99.90
4904;DHT22;2467;48.142;11.616;2023-04-30T03:07:35;12.50;99.90
4904;DHT22;2467;48.142;11.616;2023-04-30T03:08:07;12.50;99.90
4904;DHT22;2467;48.142;11.616;2023-04-30T03:08:39;12.50;99.90
4904;DHT22;2467;48.142;11.616;2023-04-30T03:09:11;12.50;99.90
4904;DHT22;2467;48.142;11.616;2023-04-30T03:09:43;12.40;99.90
4904;DHT22;2467;48.142;11.616;2023-04-30T03:10:17;12.50;99.90
4904;DHT22;2467;48.142;11.616;2023-04-30T03:10:49;12.50;99.90
4904;DHT22;2467;48.142;11.616;2023-04-30T03:11:21;12.50;99.90
4904;DHT22;2467;48.142;11.616;2023-04-30T03:11:54;12.50;99.90
4904;DHT22;2467;48.142;11.616;2023-04-30T03:12:26;12.40;99.90
4904;DHT22;2467;48.142;11.616;2023-04-30T03:12:57;12.40;99.90
4904;DHT22;2467;48.142;11.616;2023-04-30T03:13:30;12.40;99.90
4904;DHT22;2467;48.142;11.616;2023-04-30T03:14:02;12.30;99.90
4904;DHT22;2467;48.142;11.616;2023-04-30T03:14:36;12.30;99.90
4904;DHT22;2467;48.142;11.616;2023-04-30T03:15:09;12.30;99.90
4904;DHT22;2467;48.142;11.616;2023-04-30T03:15:41;12.20;99.90
4904;DHT22;2467;48.142;11.616;2023-04-30T03:16:13;12.20;99.90
4904;DHT22;2467;48.142;11.616;2023-04-30T03:16:46;12.20;99.90
4904;DHT22;2467;48.142;11.616;2023-04-30T03:17:19;12.20;99.90
4904;DHT22;2467;48.142;11.616;2023-04-30T03:17:50;12.20;99.90
4904;DHT22;2467;48.142;11.616;2023-04-30T03:18:23;12.20;99.90
4904;DHT22;2467;48.142;11.616;2023-04-30T03:18:55;12.20;99.90
4904;DHT22;2467;48.142;11.616;2023-04-30T03:19:27;12.20;99.90
4904;DHT22;2467;48.142;11.616;2023-04-30T03:19:59;12.30;99.90
4904;DHT22;2467;48.142;11.616;2023-04-30T03:20:32;12.30;99.90
4904;DHT22;2467;48.142;11.616;2023-04-30T03:21:04;12.30;99.90
4904;DHT22;2467;48.142;11.616;2023-04-30T03:21:36;12.40;99.90
4904;DHT22;2467;48.142;11.616;2023-04-30T03:22:09;12.40;99.90
4904;DHT22;2467;48.142;11.616;2023-04-30T03:22:41;12.40;99.90
4904;DHT22;2467;48.142;11.616;2023-04-30T03:23:13;12.40;99.90
4904;DHT22;2467;48.142;11.616;2023-04-30T03:23:46;12.50;99.90
4904;DHT22;2467;48.142;11.616;2023-04-30T03:24:17;12.40;99.90
4904;DHT22;2467;48.142;11.616;2023-04-30T03:24:49;12.50;99.90
4904;DHT22;2467;48.142;11.616;2023-04-30T03:25:22;12.50;99.90
4904;DHT22;2467;48.142;11.616;2023-04-30T03:25:54;12.50;99.90
4904;DHT22;2467;48.142;11.616;2023-04-30T03:26:26;12.50;99.90
4904;DHT22;2467;48.142;11.616;2023-04-30T03:26:59;12.40;99.90
4904;DHT22;2467;48.142;11.616;2023-04-30T03:27:32;12.30;99.90
4904;DHT22;2467;48.142;11.616;2023-04-30T03:28:04;12.30;99.90
4904;DHT22;2467;48.142;11.616;2023-04-30T03:28:36;12.20;99.90
4904;DHT22;2467;48.142;11.616;2023-04-30T03:29:08;12.10;99.90
4904;DHT22;2467;48.142;11.616;2023-04-30T03:29:41;12.20;99.90
4904;DHT22;2467;48.142;11.616;2023-04-30T03:30:14;12.10;99.90
4904;DHT22;2467;48.142;11.616;2023-04-30T03:30:46;12.10;99.90
4904;DHT22;2467;48.142;11.616;2023-04-30T03:31:18;12.10;99.90
4904;DHT22;2467;48.142;11.616;2023-04-30T03:31:51;12.20;99.90
4904;DHT22;2467;48.142;11.616;2023-04-30T03:32:23;12.10;99.90
4904;DHT22;2467;48.142;11.616;2023-04-30T03:32:55;12.10;99.90
4904;DHT22;2467;48.142;11.616;2023-04-30T03:33:28;12.10;99.90
4904;DHT22;2467;48.142;11.616;2023-04-30T03:34:00;12.10;99.90
4904;DHT22;2467;48.142;11.616;2023-04-30T03:34:32;12.10;99.90
4904;DHT22;2467;48.142;11.616;2023-04-30T03:35:05;12.10;99.90
4904;DHT22;2467;48.142;11.616;2023-04-30T03:35:37;12.10;99.90
4904;DHT22;2467;48.142;11.616;2023-04-30T03:36:09;12.10;99.90
4904;DHT22;2467;48.142;11.616;2023-04-30T03:36:43;12.10;99.90
4904;DHT22;2467;48.142;11.616;2023-04-30T03:37:15;12.10;99.90
4904;DHT22;2467;48.142;11.616;2023-04-30T03:37:46;12.10;99.90
4904;DHT22;2467;48.142;11.616;2023-04-30T03:38:19;12.10;99.90
4904;DHT22;2467;48.142;11.616;2023-04-30T03:38:51;12.10;99.90